Loomis, WA

10:33 PM PDT on August 21, 2014 (GMT -0700)
Pangborn Memorial | Change Station
CLOSE
Current Station
Airport
Location: Wenatchee,
Elevation: 1247 ft
Nearby Weather Stations
Active Advisory: Flash Flood Watch

Elev 1247 ft 47.40 °N, 120.21 °W | Updated 38 minutes ago

Mostly Cloudy
Mostly Cloudy
72 °F
Feels Like 72 °F
N
6
Wind Variable Wind from North

Today
High -- | Low -- °F
--% Chance of Precip.
Yesterday
High -- | Low -- °F
Precip. -- in
6:00 AM 8:02 PM
Waning Crescent, 10% visible
Pressure 29.88 in
Visibility 10.0 miles
Clouds Mostly Cloudy 8000 ft
Dew Point 47 °F
Humidity 41%
Rainfall 0.00 in
Snow Depth Not available.
UV 0 out of 12
Pollen 2.60 out of 12
Air Quality Not available.
Flu Activity Not available.
METAR KEAT 220455Z AUTO 01005KT 10SM BKN080 22/08 A2990 RMK AO2 LTG DSNT NE SLP116 T02220083

More Conditions Fewer Conditions

Pressure 29.88 in
Visibility 10.0 miles
Clouds Mostly Cloudy 8000 ft
Dew Point 47 °F
Humidity 41%
Rainfall 0.00 in
Snow Depth Not available.
UV 0 out of 12
Pollen 2.60 out of 12
Air Quality Not available.
Flu Activity Not available.
METAR KEAT 220455Z AUTO 01005KT 10SM BKN080 22/08 A2990 RMK AO2 LTG DSNT NE SLP116 T02220083

More Conditions Fewer Conditions

10-Day Weather Forecast

Almanac

Astronomy

Aug. 21, 2014 Rise Set
Actual Time 6:00 AM PDT 8:02 PM PDT
Civil Twilight 5:25 AM PDT 8:36 PM PDT
Nautical Twilight 4:43 AM PDT 9:18 PM PDT
Astronomical Twilight 3:56 AM PDT 10:05 PM PDT
Moon 2:26 AM PDT (8/21) 5:41 PM PDT (8/21)
Length of Visible Light 15h 10m
Length of Day
14h 02m
Tomorrow will be 3m 22s shorter.
Waning Crescent, 10% of the Moon is Illuminated
Aug 22
Waning Crescent
Aug 25
New
Sep 2
First Quarter
Sep 8
Full
Sep 15
Last Quarter

Yesterday's Extremes

State Highs State Lows

Community

WunderPhotos

Upload Photos

1,746,131 photos uploaded!

Nearby

Snow Depth

Station Depth Elevation
Moses Mountain 1 in 5300 ft
Harts Pass 0 in 6500 ft
Rainy Pass 0 in 4780 ft
Swamp Creek 0 in 4000 ft
Sentinel Butte 0 in 4920 ft

Earthquake Activity

City Distance Mag. Time & Date
No recent earthquake activity has been reported nearby.
Minimum magnitude displayed is 2.5.

Coastal Water Temperatures

Place Temperature
No Stations Reporting

Nearby Weather Stations